Time;durP1;ratioP1;P1;durP2;ratioP2;P2;SDS_P1;SDS_P2;PMS_P1;PMS_P2;Temp;Humidity;BMP_temperature;BMP_pressure;BME280_temperature;BME280_humidity;BME280_pressure;Samples;Min_cycle;Max_cycle;Signal;HPM_P1;HPM_P2
2021/05/09 00:01:31;;;;;;;15.23;10.85;;;8.30;99.90;;;;;;5137514;27;20242;-66
2021/05/09 00:03:56;;;;;;;16.70;10.53;;;8.10;99.90;;;;;;5137394;27;20199;-65
2021/05/09 00:06:23;;;;;;;16.50;11.00;;;8.20;99.90;;;;;;5137340;27;20170;-67
2021/05/09 00:08:49;;;;;;;14.20;10.52;;;8.00;99.90;;;;;;5118763;27;20206;-67
2021/05/09 00:11:14;;;;;;;15.00;11.07;;;8.00;99.90;;;;;;5137219;27;20206;-68
2021/05/09 00:13:40;;;;;;;16.33;10.50;;;8.00;99.90;;;;;;5137053;27;20454;-66
2021/05/09 00:16:06;;;;;;;16.47;10.80;;;7.90;99.90;;;;;;5137245;27;20167;-66
2021/05/09 00:18:32;;;;;;;15.77;11.33;;;7.90;99.90;;;;;;5137015;27;20439;-67
2021/05/09 00:20:58;;;;;;;14.80;11.50;;;7.70;99.90;;;;;;5137017;27;20908;-66
2021/05/09 00:23:24;;;;;;;14.02;9.75;;;7.80;99.90;;;;;;5136584;27;20663;-68
2021/05/09 00:25:50;;;;;;;13.00;10.15;;;7.60;99.90;;;;;;5136896;27;20247;-66
2021/05/09 00:28:16;;;;;;;13.37;10.30;;;7.70;99.90;;;;;;5118340;27;20293;-67
2021/05/09 00:30:41;;;;;;;11.40;8.87;;;7.80;99.90;;;;;;5136517;27;20242;-67
2021/05/09 00:33:07;;;;;;;14.00;8.30;;;7.70;99.90;;;;;;5118347;27;20195;-67
2021/05/09 00:35:32;;;;;;;13.93;9.30;;;7.90;99.90;;;;;;5137305;27;20171;-67
2021/05/09 00:37:58;;;;;;;13.03;8.90;;;7.80;99.90;;;;;;5136536;27;20251;-67
2021/05/09 00:40:23;;;;;;;15.07;8.90;;;7.70;99.90;;;;;;5118492;27;20222;-68
2021/05/09 00:42:49;;;;;;;12.80;8.23;;;7.50;99.90;;;;;;5136507;27;20604;-66
2021/05/09 00:45:15;;;;;;;14.47;9.23;;;7.40;99.90;;;;;;5137086;27;20187;-66
2021/05/09 00:47:40;;;;;;;11.17;8.30;;;7.40;99.90;;;;;;5136458;27;20324;-66
2021/05/09 00:50:06;;;;;;;11.70;8.40;;;7.40;99.90;;;;;;5136806;27;20291;-67
2021/05/09 00:52:36;;;;;;;13.10;8.73;;;7.30;99.90;;;;;;5136435;27;20179;-67
2021/05/09 00:55:04;;;;;;;9.13;7.95;;;7.40;99.90;;;;;;5118155;27;20179;-67
2021/05/09 00:57:33;;;;;;;12.85;8.82;;;7.50;99.90;;;;;;5136128;27;20199;-65
2021/05/09 01:00:00;;;;;;;12.82;8.20;;;7.30;99.90;;;;;;5136669;27;20577;-65
2021/05/09 01:02:28;;;;;;;17.55;9.05;;;7.20;99.90;;;;;;5136118;27;20167;-65
2021/05/09 01:04:55;;;;;;;14.25;8.80;;;7.10;99.90;;;;;;5136484;27;20562;-65
2021/05/09 01:07:21;;;;;;;11.50;8.80;;;7.10;99.90;;;;;;5136089;27;20178;-65
2021/05/09 01:09:46;;;;;;;18.33;8.87;;;7.30;99.90;;;;;;5136254;27;20571;-65
2021/05/09 01:12:13;;;;;;;15.07;9.60;;;7.20;99.90;;;;;;5136140;27;20399;-67
2021/05/09 01:14:40;;;;;;;16.35;10.50;;;7.10;99.90;;;;;;5136286;27;20178;-66
2021/05/09 01:17:06;;;;;;;16.60;9.00;;;7.10;99.90;;;;;;5135924;27;20171;-66
2021/05/09 01:19:36;;;;;;;11.73;8.30;;;7.00;99.90;;;;;;5117479;27;20207;-66
2021/05/09 01:22:06;;;;;;;14.93;8.40;;;7.00;99.90;;;;;;5135888;27;20255;-66
2021/05/09 01:24:32;;;;;;;13.73;9.75;;;7.00;99.90;;;;;;5117373;27;20209;-67
2021/05/09 01:26:58;;;;;;;14.00;9.18;;;7.00;99.90;;;;;;5117276;27;20554;-67
2021/05/09 01:29:24;;;;;;;13.50;8.17;;;7.00;99.90;;;;;;5135444;27;20235;-67
2021/05/09 01:31:50;;;;;;;13.40;9.80;;;6.90;99.90;;;;;;5135530;27;20714;-67
2021/05/09 01:34:16;;;;;;;13.18;8.55;;;6.90;99.90;;;;;;5135114;27;20286;-65
2021/05/09 01:36:42;;;;;;;15.90;10.20;;;7.10;99.90;;;;;;5117133;27;20614;-66
2021/05/09 01:39:07;;;;;;;14.43;8.90;;;7.10;99.90;;;;;;5117119;27;20301;-67
2021/05/09 01:41:33;;;;;;;10.90;8.53;;;7.00;99.90;;;;;;5135438;27;20247;-68
2021/05/09 01:43:59;;;;;;;15.30;10.50;;;6.90;99.90;;;;;;5135449;27;20209;-67
2021/05/09 01:46:25;;;;;;;15.30;9.37;;;6.80;99.90;;;;;;5135426;27;20220;-66
2021/05/09 01:48:51;;;;;;;13.73;9.60;;;6.90;99.90;;;;;;5116898;27;20443;-67
2021/05/09 01:51:17;;;;;;;12.90;9.20;;;6.80;99.90;;;;;;5135222;27;20210;-67
2021/05/09 01:53:43;;;;;;;16.50;9.93;;;6.80;99.90;;;;;;5135286;27;20247;-65
2021/05/09 01:56:08;;;;;;;17.20;11.07;;;6.80;99.90;;;;;;5135249;27;20171;-68
2021/05/09 01:58:34;;;;;;;16.50;10.23;;;6.70;99.90;;;;;;5134992;27;20627;-65
2021/05/09 02:01:00;;;;;;;18.07;10.93;;;6.70;99.90;;;;;;5135048;27;20254;-67
2021/05/09 02:03:25;;;;;;;17.13;11.00;;;6.60;99.90;;;;;;5116638;27;20595;-65
2021/05/09 02:05:51;;;;;;;16.57;11.60;;;6.50;99.90;;;;;;5135022;27;20923;-67
2021/05/09 02:08:16;;;;;;;19.00;10.97;;;6.50;99.90;;;;;;5135075;27;20225;-66
2021/05/09 02:10:42;;;;;;;15.03;11.50;;;6.50;99.90;;;;;;5134869;27;20199;-68
2021/05/09 02:13:08;;;;;;;14.27;10.13;;;6.50;99.90;;;;;;5116462;27;20222;-65
2021/05/09 02:15:34;;;;;;;12.60;10.10;;;6.60;99.90;;;;;;5135383;27;20182;-67
2021/05/09 02:17:59;;;;;;;15.80;10.57;;;6.60;99.90;;;;;;5134790;27;20537;-67
2021/05/09 02:20:25;;;;;;;15.97;11.17;;;6.60;99.90;;;;;;5135380;27;20374;-65
2021/05/09 02:22:51;;;;;;;21.00;10.47;;;6.60;99.90;;;;;;5116367;27;20201;-66
2021/05/09 02:25:16;;;;;;;16.23;10.07;;;6.50;99.90;;;;;;5135332;27;20183;-66
2021/05/09 02:27:42;;;;;;;17.60;10.50;;;6.60;99.90;;;;;;5134708;27;20191;-65
2021/05/09 02:30:08;;;;;;;17.20;11.17;;;6.50;99.90;;;;;;5134547;27;20596;-67
2021/05/09 02:32:34;;;;;;;16.42;12.38;;;6.60;99.90;;;;;;5134551;27;20551;-68
2021/05/09 02:35:00;;;;;;;14.20;10.60;;;6.70;99.90;;;;;;5134948;28;20191;-67
2021/05/09 02:37:26;;;;;;;15.60;10.48;;;6.50;99.90;;;;;;5116165;27;20171;-67
2021/05/09 02:39:52;;;;;;;21.77;13.40;;;6.40;99.90;;;;;;5134519;28;20581;-67
2021/05/09 02:42:18;;;;;;;18.20;11.33;;;6.40;99.90;;;;;;5134607;27;20179;-67
2021/05/09 02:44:44;;;;;;;17.13;11.57;;;6.30;99.90;;;;;;5134906;28;20565;-67
2021/05/09 02:47:10;;;;;;;14.73;9.80;;;6.30;99.90;;;;;;5138122;27;20175;-68
2021/05/09 02:49:36;;;;;;;17.00;10.98;;;6.20;99.90;;;;;;5120264;27;20263;-65
2021/05/09 02:52:02;;;;;;;16.63;10.60;;;6.30;99.90;;;;;;5138891;27;20209;-66
2021/05/09 02:54:28;;;;;;;17.33;10.85;;;6.50;99.90;;;;;;5138965;27;20801;-66
2021/05/09 02:56:54;;;;;;;15.10;10.35;;;6.40;99.90;;;;;;5138677;27;20167;-66
2021/05/09 02:59:20;;;;;;;16.30;10.77;;;6.40;99.90;;;;;;5120269;27;20717;-67
2021/05/09 03:01:46;;;;;;;19.60;12.50;;;6.40;99.90;;;;;;5138603;27;20655;-66
2021/05/09 03:04:12;;;;;;;17.00;11.03;;;6.50;99.90;;;;;;5138729;27;20439;-67
2021/05/09 03:06:37;;;;;;;19.42;12.80;;;6.40;99.90;;;;;;5138512;27;20673;-68
2021/05/09 03:09:04;;;;;;;17.00;12.40;;;6.40;99.90;;;;;;5138617;27;20203;-66
2021/05/09 03:11:29;;;;;;;17.05;12.40;;;6.40;99.90;;;;;;5138342;27;20175;-68
2021/05/09 03:13:56;;;;;;;19.73;12.97;;;6.30;99.90;;;;;;5138349;27;20210;-66
2021/05/09 03:16:22;;;;;;;18.33;12.77;;;6.30;99.90;;;;;;5138350;27;20210;-66
2021/05/09 03:18:47;;;;;;;16.23;11.80;;;6.30;99.90;;;;;;5138250;27;20195;-67
2021/05/09 03:21:14;;;;;;;22.43;12.17;;;6.40;99.90;;;;;;5138256;27;20263;-68
2021/05/09 03:23:40;;;;;;;20.38;13.40;;;6.40;99.90;;;;;;5138072;27;20191;-66
2021/05/09 03:26:05;;;;;;;26.03;14.00;;;6.40;99.90;;;;;;5138200;27;20308;-66
2021/05/09 03:28:31;;;;;;;18.43;11.67;;;6.40;99.90;;;;;;5119307;27;20582;-66
2021/05/09 03:30:56;;;;;;;18.27;12.00;;;6.60;99.90;;;;;;5137939;27;20199;-66
2021/05/09 03:33:22;;;;;;;19.80;11.30;;;6.60;99.90;;;;;;5137922;27;20206;-67
2021/05/09 03:35:48;;;;;;;17.90;12.37;;;6.40;99.90;;;;;;5137960;27;20628;-67
2021/05/09 03:38:13;;;;;;;19.60;13.57;;;6.60;99.90;;;;;;5119346;27;20270;-66
2021/05/09 03:40:40;;;;;;;18.87;12.87;;;6.70;99.90;;;;;;5137780;27;20174;-67
2021/05/09 03:43:06;;;;;;;18.65;13.00;;;6.80;99.90;;;;;;5137717;27;20197;-67
2021/05/09 03:45:32;;;;;;;20.90;13.00;;;6.80;99.90;;;;;;5138460;27;20183;-67
2021/05/09 03:47:57;;;;;;;20.43;12.30;;;6.80;99.90;;;;;;5137610;27;20194;-65
2021/05/09 03:50:23;;;;;;;19.20;12.77;;;6.80;99.90;;;;;;5138134;27;20250;-66
2021/05/09 03:52:49;;;;;;;16.73;12.63;;;6.90;99.90;;;;;;5137580;27;20191;-67
2021/05/09 03:55:14;;;;;;;19.30;13.87;;;7.00;99.90;;;;;;5138143;27;20199;-66
2021/05/09 03:57:40;;;;;;;22.63;13.60;;;7.00;99.90;;;;;;5136646;27;20322;-66
2021/05/09 04:00:06;;;;;;;23.77;14.40;;;7.10;99.90;;;;;;5137838;27;20194;-67
2021/05/09 04:02:32;;;;;;;18.80;13.85;;;7.10;99.90;;;;;;5118462;27;20587;-65
2021/05/09 04:04:57;;;;;;;30.33;14.47;;;7.20;99.90;;;;;;5137723;27;20179;-67
2021/05/09 04:07:23;;;;;;;20.83;15.53;;;7.10;99.90;;;;;;5137366;27;20539;-67
2021/05/09 04:09:49;;;;;;;20.87;14.43;;;7.20;99.90;;;;;;5137529;27;20222;-67
2021/05/09 04:12:14;;;;;;;18.45;12.95;;;7.40;99.90;;;;;;5137164;27;20164;-66
2021/05/09 04:14:40;;;;;;;23.37;13.90;;;7.50;99.90;;;;;;5136562;27;20179;-67
2021/05/09 04:17:06;;;;;;;21.73;13.80;;;7.50;99.90;;;;;;5137246;27;20627;-67
2021/05/09 04:19:31;;;;;;;19.80;13.03;;;7.60;99.90;;;;;;5137355;27;20199;-67
2021/05/09 04:21:57;;;;;;;20.50;12.93;;;7.70;99.90;;;;;;5137023;27;20216;-68
2021/05/09 04:24:22;;;;;;;21.73;13.07;;;7.70;99.90;;;;;;5137291;27;20202;-67
2021/05/09 04:26:49;;;;;;;21.10;12.23;;;7.80;99.90;;;;;;5118589;27;20167;-66
2021/05/09 04:29:15;;;;;;;20.65;12.93;;;7.90;99.90;;;;;;5136667;27;20250;-65
2021/05/09 04:31:41;;;;;;;18.27;13.30;;;8.00;99.90;;;;;;5118408;27;20175;-66
2021/05/09 04:34:06;;;;;;;24.25;14.82;;;8.20;99.90;;;;;;5136896;27;20655;-67
2021/05/09 04:36:32;;;;;;;23.23;12.90;;;8.20;99.90;;;;;;5136857;27;20173;-67
2021/05/09 04:38:57;;;;;;;20.07;11.33;;;8.30;99.90;;;;;;5136795;27;20290;-67
2021/05/09 04:41:23;;;;;;;22.73;13.37;;;8.40;99.90;;;;;;5136979;27;20174;-65
2021/05/09 04:43:49;;;;;;;23.83;13.60;;;8.60;99.90;;;;;;5136506;27;20207;-67
2021/05/09 04:46:14;;;;;;;22.70;13.67;;;8.70;99.90;;;;;;5136620;27;20171;-68
2021/05/09 04:48:40;;;;;;;31.63;16.60;;;8.90;99.90;;;;;;5136410;27;20210;-67
2021/05/09 04:51:05;;;;;;;29.27;15.87;;;9.00;99.90;;;;;;5136400;27;20214;-66
2021/05/09 04:53:36;;;;;;;24.13;14.57;;;9.10;99.90;;;;;;5136403;27;20242;-66
2021/05/09 04:56:07;;;;;;;20.13;12.60;;;9.20;99.90;;;;;;5136438;27;20178;-67
2021/05/09 04:58:35;;;;;;;22.33;13.68;;;9.30;99.90;;;;;;5136246;27;20551;-68
2021/05/09 05:01:02;;;;;;;16.95;12.07;;;9.50;99.90;;;;;;5117828;27;20227;-67
2021/05/09 05:03:28;;;;;;;19.20;11.63;;;9.70;99.90;;;;;;5136206;27;20191;-66
2021/05/09 05:05:54;;;;;;;21.58;13.63;;;9.70;99.90;;;;;;5117703;27;20171;-68
2021/05/09 05:08:20;;;;;;;21.70;12.55;;;9.90;99.90;;;;;;5117585;27;20199;-66
2021/05/09 05:10:46;;;;;;;19.60;11.97;;;10.00;99.90;;;;;;5135034;27;20721;-68
2021/05/09 05:13:25;;;;;;;18.43;10.93;;;10.20;99.90;;;;;;5136018;27;20668;-68
2021/05/09 05:15:53;;;;;;;18.88;11.55;;;10.30;99.90;;;;;;5135962;27;20403;-66
2021/05/09 05:18:19;;;;;;;20.58;11.40;;;10.40;99.90;;;;;;5135876;27;20549;-68
2021/05/09 05:20:45;;;;;;;15.30;9.82;;;10.60;99.90;;;;;;5135909;27;20179;-67
2021/05/09 05:23:11;;;;;;;18.75;11.07;;;10.70;99.90;;;;;;5135710;27;20191;-67
2021/05/09 05:25:38;;;;;;;18.10;10.48;;;10.70;99.90;;;;;;5135819;27;20262;-66
2021/05/09 05:28:04;;;;;;;15.32;9.13;;;10.60;99.90;;;;;;5135708;27;20198;-67
2021/05/09 05:30:30;;;;;;;15.90;8.82;;;10.70;99.90;;;;;;5117042;27;20239;-66
2021/05/09 05:32:59;;;;;;;15.98;9.85;;;10.70;99.90;;;;;;5135604;27;20731;-68
2021/05/09 05:35:26;;;;;;;12.63;8.48;;;10.90;99.90;;;;;;5136260;27;20684;-67
2021/05/09 05:37:55;;;;;;;11.30;8.45;;;11.00;99.90;;;;;;5135444;27;20282;-66
2021/05/09 05:40:23;;;;;;;15.70;8.80;;;11.10;99.90;;;;;;5136032;27;20171;-66
2021/05/09 05:42:49;;;;;;;13.15;8.43;;;11.20;99.90;;;;;;5135395;27;20187;-67
2021/05/09 05:45:15;;;;;;;13.00;8.93;;;11.40;99.90;;;;;;5136026;27;20179;-68
2021/05/09 05:47:40;;;;;;;15.02;9.43;;;11.40;99.90;;;;;;5135280;27;20477;-67
2021/05/09 05:50:07;;;;;;;12.03;7.90;;;11.60;99.90;;;;;;5135656;27;20726;-68
2021/05/09 05:52:33;;;;;;;14.52;9.30;;;11.80;99.90;;;;;;5135179;27;20167;-66
2021/05/09 05:54:59;;;;;;;14.27;8.60;;;12.00;99.90;;;;;;5135663;27;20756;-66
2021/05/09 05:57:25;;;;;;;11.73;7.47;;;12.00;99.90;;;;;;5135157;27;20199;-66
2021/05/09 05:59:50;;;;;;;17.50;9.30;;;12.10;99.90;;;;;;5135492;27;20248;-68
2021/05/09 06:02:16;;;;;;;13.33;8.60;;;12.10;99.90;;;;;;5135082;27;20596;-66
2021/05/09 06:04:42;;;;;;;16.63;7.63;;;12.20;99.90;;;;;;5135407;27;20175;-67
2021/05/09 06:07:09;;;;;;;12.93;8.43;;;12.30;99.90;;;;;;5135109;27;20159;-67
2021/05/09 06:09:34;;;;;;;15.35;9.55;;;12.60;99.90;;;;;;5135099;27;20558;-68
2021/05/09 06:12:02;;;;;;;13.80;8.87;;;12.60;99.90;;;;;;5134972;27;20703;-67
2021/05/09 06:14:28;;;;;;;13.47;7.60;;;12.70;99.90;;;;;;5116438;27;20545;-67
2021/05/09 06:16:53;;;;;;;14.33;8.87;;;12.80;99.90;;;;;;5134851;27;20403;-66
2021/05/09 06:19:19;;;;;;;14.57;9.17;;;13.10;99.90;;;;;;5135145;27;20434;-66
2021/05/09 06:21:45;;;;;;;14.17;8.13;;;13.40;99.90;;;;;;5134546;27;20167;-69
2021/05/09 06:24:10;;;;;;;12.17;8.17;;;13.30;99.90;;;;;;5134639;27;20319;-66
2021/05/09 06:26:36;;;;;;;12.13;7.43;;;13.40;99.90;;;;;;5116355;27;20174;-68
2021/05/09 06:29:02;;;;;;;13.53;9.00;;;13.50;99.90;;;;;;5134563;27;20233;-67
2021/05/09 06:31:28;;;;;;;12.70;8.20;;;13.60;99.90;;;;;;5116368;27;20261;-69
2021/05/09 06:33:54;;;;;;;13.90;8.40;;;13.80;99.90;;;;;;5134726;27;20439;-67
2021/05/09 06:36:19;;;;;;;13.47;8.67;;;13.70;99.90;;;;;;5134599;28;20262;-67
2021/05/09 06:38:45;;;;;;;16.07;9.10;;;13.60;99.90;;;;;;5134645;27;20199;-68
2021/05/09 06:41:10;;;;;;;12.27;7.07;;;13.90;99.90;;;;;;5134645;28;20170;-68
2021/05/09 06:43:36;;;;;;;13.57;7.77;;;14.00;99.90;;;;;;5116169;28;20290;-67
2021/05/09 06:46:02;;;;;;;11.90;7.60;;;14.20;99.90;;;;;;5134543;28;20720;-68
2021/05/09 06:48:28;;;;;;;13.63;7.47;;;13.90;99.90;;;;;;5116022;28;20286;-67
2021/05/09 06:50:54;;;;;;;12.43;7.83;;;14.20;99.90;;;;;;5134438;28;20545;-68
2021/05/09 06:53:19;;;;;;;15.33;7.83;;;14.30;99.90;;;;;;5134544;27;20191;-66
2021/05/09 06:55:49;;;;;;;12.67;8.00;;;14.30;99.90;;;;;;5134456;28;20261;-68
2021/05/09 06:58:15;;;;;;;15.57;7.70;;;14.70;99.90;;;;;;5134612;27;20187;-69
2021/05/09 07:00:41;;;;;;;14.43;7.97;;;14.90;99.90;;;;;;5134304;28;20419;-68
2021/05/09 07:03:07;;;;;;;14.70;8.33;;;14.90;99.90;;;;;;5134342;27;20225;-68
2021/05/09 07:05:33;;;;;;;12.47;8.30;;;15.10;99.90;;;;;;5134378;28;20411;-66
2021/05/09 07:07:59;;;;;;;13.30;8.20;;;15.10;99.90;;;;;;5134319;27;20198;-67
2021/05/09 07:10:26;;;;;;;13.80;8.50;;;15.00;99.90;;;;;;5134853;28;20820;-68
2021/05/09 07:12:52;;;;;;;16.80;8.60;;;15.10;99.90;;;;;;5134260;27;20202;-68
2021/05/09 07:15:27;;;;;;;12.50;7.20;;;15.30;99.90;;;;;;5134796;28;20760;-67
2021/05/09 07:17:55;;;;;;;16.37;7.83;;;15.50;99.90;;;;;;5134178;27;20761;-69
2021/05/09 07:20:20;;;;;;;12.50;8.20;;;15.70;99.90;;;;;;5134744;28;20422;-69
2021/05/09 07:22:52;;;;;;;14.80;7.43;;;15.80;99.90;;;;;;5134067;27;20418;-67
2021/05/09 07:25:19;;;;;;;10.57;7.00;;;16.00;99.90;;;;;;5134918;28;20247;-66
2021/05/09 07:27:44;;;;;;;13.77;6.67;;;15.80;99.90;;;;;;5134113;27;20462;-68
2021/05/09 07:30:11;;;;;;;10.97;6.50;;;15.70;99.90;;;;;;5134039;28;20510;-67
2021/05/09 07:32:36;;;;;;;11.17;7.83;;;15.90;99.90;;;;;;5134707;27;20670;-69
2021/05/09 07:35:02;;;;;;;11.13;6.83;;;15.80;99.90;;;;;;5138120;27;20419;-67
2021/05/09 07:37:27;;;;;;;16.47;6.93;;;15.80;99.90;;;;;;5138348;27;20178;-66
2021/05/09 07:39:53;;;;;;;10.23;6.80;;;15.80;99.90;;;;;;5119377;27;20171;-69
2021/05/09 07:42:18;;;;;;;12.93;6.93;;;16.20;99.90;;;;;;5137851;27;20511;-67
2021/05/09 07:44:44;;;;;;;11.37;6.80;;;16.20;99.10;;;;;;5137808;27;20179;-68
2021/05/09 07:47:11;;;;;;;9.73;5.37;;;16.30;99.90;;;;;;5138149;27;20164;-69
2021/05/09 07:49:36;;;;;;;9.63;5.80;;;16.50;99.90;;;;;;5119129;27;20222;-67
2021/05/09 07:52:02;;;;;;;12.70;5.63;;;16.50;99.80;;;;;;5138007;27;20407;-67
2021/05/09 07:54:27;;;;;;;10.00;5.33;;;16.60;99.20;;;;;;5137624;27;20281;-68
2021/05/09 07:56:53;;;;;;;9.93;7.40;;;16.50;96.20;;;;;;5137866;27;20676;-67
2021/05/09 07:59:19;;;;;;;7.00;5.10;;;16.50;94.90;;;;;;5137638;27;20202;-68
2021/05/09 08:01:44;;;;;;;11.90;7.00;;;16.60;95.80;;;;;;5137782;27;20613;-68
2021/05/09 08:04:10;;;;;;;10.63;5.57;;;16.60;96.30;;;;;;5137436;27;20195;-68
2021/05/09 08:06:35;;;;;;;10.77;5.40;;;16.80;96.00;;;;;;5137647;27;20171;-69
2021/05/09 08:09:01;;;;;;;11.97;6.50;;;16.90;96.30;;;;;;5119197;27;20202;-67
2021/05/09 08:11:26;;;;;;;9.37;6.00;;;16.90;97.10;;;;;;5137513;27;20268;-67
2021/05/09 08:13:52;;;;;;;15.70;7.23;;;16.50;94.80;;;;;;5137179;27;20209;-67
2021/05/09 08:16:17;;;;;;;11.67;6.80;;;16.60;96.30;;;;;;5136970;27;20170;-67
2021/05/09 08:18:43;;;;;;;11.57;6.40;;;16.70;95.80;;;;;;5118586;27;20195;-66
2021/05/09 08:21:09;;;;;;;10.43;6.17;;;16.70;96.40;;;;;;5137387;27;20171;-66
2021/05/09 08:23:37;;;;;;;9.80;5.00;;;16.70;95.50;;;;;;5137004;27;20194;-68
2021/05/09 08:26:03;;;;;;;9.17;5.30;;;16.70;94.40;;;;;;5118580;27;20287;-68
2021/05/09 08:28:29;;;;;;;9.70;5.10;;;16.90;93.60;;;;;;5136705;27;20793;-66
2021/05/09 08:30:55;;;;;;;10.20;6.37;;;17.00;95.30;;;;;;5136924;27;20462;-67
2021/05/09 08:33:20;;;;;;;9.13;5.97;;;16.80;93.30;;;;;;5118376;27;20191;-69
2021/05/09 08:35:46;;;;;;;15.70;6.57;;;17.00;93.40;;;;;;5136862;27;20164;-68
2021/05/09 08:38:11;;;;;;;9.77;6.23;;;16.90;92.70;;;;;;5136766;27;20680;-66
2021/05/09 08:40:37;;;;;;;13.50;5.63;;;17.00;92.60;;;;;;5136746;27;20660;-68
2021/05/09 08:43:03;;;;;;;12.13;6.03;;;17.10;92.10;;;;;;5136528;27;20668;-66
2021/05/09 08:45:28;;;;;;;8.53;5.17;;;17.10;92.20;;;;;;5136577;27;20267;-69
2021/05/09 08:47:55;;;;;;;10.47;5.40;;;17.20;92.10;;;;;;5136483;27;20195;-67
2021/05/09 08:50:25;;;;;;;8.20;5.30;;;17.20;93.60;;;;;;5136423;27;20194;-69
2021/05/09 08:52:52;;;;;;;9.63;4.90;;;17.40;92.50;;;;;;5136507;27;20944;-67
2021/05/09 08:55:22;;;;;;;10.83;6.27;;;17.30;91.40;;;;;;5136401;27;20761;-67
2021/05/09 08:57:48;;;;;;;12.27;6.50;;;17.30;92.50;;;;;;5136311;27;20476;-68
2021/05/09 09:00:15;;;;;;;11.67;5.70;;;17.60;91.70;;;;;;5117808;27;20771;-67
2021/05/09 09:02:42;;;;;;;9.10;5.87;;;17.80;90.20;;;;;;5136169;27;20194;-68
2021/05/09 09:05:09;;;;;;;9.10;4.20;;;17.70;90.80;;;;;;5136233;27;20395;-69
2021/05/09 09:07:46;;;;;;;9.13;4.40;;;17.80;89.30;;;;;;5136654;27;20514;-68
2021/05/09 09:10:28;;;;;;;10.20;5.50;;;17.90;86.70;;;;;;5135955;27;20828;-67
2021/05/09 09:12:54;;;;;;;10.00;5.23;;;17.80;90.00;;;;;;5117544;27;20536;-68
2021/05/09 09:15:20;;;;;;;8.53;4.60;;;18.30;90.60;;;;;;5136019;27;20436;-68
2021/05/09 09:17:45;;;;;;;7.13;4.90;;;18.30;88.90;;;;;;5135899;27;20572;-69
2021/05/09 09:20:18;;;;;;;8.67;5.40;;;18.10;88.20;;;;;;5135932;27;20172;-68
2021/05/09 09:22:49;;;;;;;14.87;5.63;;;18.30;88.80;;;;;;5135710;27;20696;-68
2021/05/09 09:25:16;;;;;;;7.30;4.60;;;18.30;87.10;;;;;;5116558;27;20960;-67
2021/05/09 09:27:45;;;;;;;9.90;5.20;;;18.50;87.60;;;;;;5134222;27;20914;-67
2021/05/09 09:30:12;;;;;;;12.10;4.70;;;18.60;86.40;;;;;;5133968;27;20558;-67
2021/05/09 09:32:38;;;;;;;9.10;5.20;;;18.50;86.00;;;;;;5134159;27;20427;-69
2021/05/09 09:35:04;;;;;;;8.60;4.93;;;18.40;86.30;;;;;;5134296;27;20391;-68
2021/05/09 09:37:34;;;;;;;8.10;3.80;;;18.50;88.40;;;;;;5134578;27;20194;-68
2021/05/09 09:40:02;;;;;;;8.33;4.20;;;18.60;83.00;;;;;;5134399;27;20407;-69
2021/05/09 09:42:40;;;;;;;8.47;4.07;;;18.60;84.60;;;;;;5135342;27;20465;-67
2021/05/09 09:45:28;;;;;;;6.87;4.20;;;18.70;84.20;;;;;;5135667;27;20962;-69
2021/05/09 09:48:00;;;;;;;6.80;3.60;;;18.80;83.70;;;;;;5116830;27;20460;-69
2021/05/09 09:50:47;;;;;;;8.00;3.37;;;19.00;85.90;;;;;;5135342;27;20545;-68
2021/05/09 09:53:33;;;;;;;5.50;4.40;;;19.30;87.00;;;;;;5135269;27;20420;-68
2021/05/09 09:55:59;;;;;;;8.07;3.90;;;18.80;78.30;;;;;;5134199;27;20429;-69
2021/05/09 09:58:25;;;;;;;5.90;3.43;;;18.40;79.30;;;;;;5135217;27;20417;-67
2021/05/09 10:00:51;;;;;;;7.83;3.20;;;18.60;81.80;;;;;;5116674;27;20961;-68
2021/05/09 10:03:17;;;;;;;8.00;3.70;;;19.00;82.40;;;;;;5135064;27;20478;-67
2021/05/09 10:05:42;;;;;;;8.43;4.10;;;19.10;77.40;;;;;;5135160;27;20185;-67
2021/05/09 10:08:08;;;;;;;6.30;4.13;;;18.80;77.00;;;;;;5135008;27;20460;-68
2021/05/09 10:10:37;;;;;;;6.27;3.70;;;19.00;81.90;;;;;;5135061;27;20548;-68
2021/05/09 10:13:02;;;;;;;4.93;3.90;;;19.00;79.10;;;;;;5134923;27;20429;-68
2021/05/09 10:15:28;;;;;;;8.10;4.03;;;19.20;77.60;;;;;;5134998;27;20537;-68
2021/05/09 10:17:54;;;;;;;9.53;3.20;;;19.40;76.80;;;;;;5134795;27;20195;-68
2021/05/09 10:20:19;;;;;;;5.43;3.90;;;19.40;76.60;;;;;;5116450;27;20187;-68
2021/05/09 10:23:02;;;;;;;7.03;3.23;;;19.40;76.60;;;;;;5116357;27;20434;-67
2021/05/09 10:25:52;;;;;;;5.83;3.60;;;19.10;75.40;;;;;;5134893;27;20169;-68
2021/05/09 10:28:20;;;;;;;4.27;3.03;;;19.30;79.10;;;;;;5134784;27;20431;-69
2021/05/09 10:30:56;;;;;;;6.47;3.93;;;19.80;76.80;;;;;;5134601;27;21112;-68
2021/05/09 10:33:37;;;;;;;8.20;3.60;;;19.70;74.70;;;;;;5116244;27;20491;-67
2021/05/09 10:36:04;;;;;;;8.63;3.60;;;19.50;74.10;;;;;;5116322;28;20943;-68
2021/05/09 10:38:30;;;;;;;6.70;3.37;;;19.60;73.10;;;;;;5134644;27;20441;-67
2021/05/09 10:41:12;;;;;;;3.43;3.13;;;19.70;72.70;;;;;;5116076;28;20979;-69
2021/05/09 10:43:38;;;;;;;5.33;2.80;;;19.90;75.00;;;;;;5134544;27;20243;-69
2021/05/09 10:46:05;;;;;;;6.43;4.10;;;20.00;76.20;;;;;;5116229;28;20526;-67
2021/05/09 10:48:33;;;;;;;5.17;3.30;;;19.90;71.80;;;;;;5134490;27;20423;-67
2021/05/09 10:51:01;;;;;;;4.20;3.10;;;20.10;69.50;;;;;;5134586;28;20472;-69
2021/05/09 10:53:36;;;;;;;5.60;3.20;;;19.50;69.80;;;;;;5134592;27;20967;-68
2021/05/09 10:56:13;;;;;;;4.03;2.90;;;19.70;72.00;;;;;;5116113;28;20418;-69
2021/05/09 10:58:39;;;;;;;5.67;3.37;;;19.90;69.90;;;;;;5134336;27;20490;-68
2021/05/09 11:01:08;;;;;;;4.47;3.20;;;20.20;68.80;;;;;;5134695;28;20907;-66
2021/05/09 11:03:40;;;;;;;3.27;2.97;;;20.10;63.60;;;;;;5134398;27;20687;-69
2021/05/09 11:06:06;;;;;;;5.83;2.57;;;20.20;64.40;;;;;;5116099;28;20450;-68
2021/05/09 11:08:52;;;;;;;5.30;3.93;;;20.40;64.20;;;;;;5119911;27;20447;-67
2021/05/09 11:11:33;;;;;;;3.43;2.40;;;20.10;64.10;;;;;;5102319;27;20477;-68
2021/05/09 11:16:34;;;;;;;6.70;3.87;;;20.50;68.00;;;;;;5138738;27;20419;-67
2021/05/09 11:19:07;;;;;;;4.67;2.90;;;20.30;68.40;;;;;;5138222;27;20426;-68
2021/05/09 11:21:45;;;;;;;4.17;2.93;;;20.50;66.40;;;;;;5119893;27;20553;-67
2021/05/09 11:24:18;;;;;;;4.33;2.50;;;20.80;65.70;;;;;;5138131;27;20434;-67
2021/05/09 11:26:52;;;;;;;2.63;2.40;;;21.10;68.30;;;;;;5119703;27;20435;-67
2021/05/09 11:29:25;;;;;;;4.47;2.57;;;21.10;67.00;;;;;;5138048;27;20462;-70
2021/05/09 11:31:54;;;;;;;4.30;3.00;;;21.20;67.60;;;;;;5138503;27;20461;-68
2021/05/09 11:34:21;;;;;;;5.53;3.67;;;21.30;64.00;;;;;;5137968;27;20419;-67
2021/05/09 11:36:50;;;;;;;5.33;2.90;;;21.10;62.50;;;;;;5138259;27;20415;-67
2021/05/09 11:39:28;;;;;;;4.20;2.70;;;21.20;65.80;;;;;;5137999;27;20928;-69
2021/05/09 11:41:58;;;;;;;4.47;3.20;;;21.30;65.10;;;;;;5138225;27;20418;-69
2021/05/09 11:44:39;;;;;;;3.00;2.70;;;21.20;66.60;;;;;;5138040;27;20446;-67
2021/05/09 11:47:08;;;;;;;3.73;2.57;;;21.10;65.20;;;;;;5138339;27;20510;-67
2021/05/09 11:49:35;;;;;;;4.17;3.00;;;21.10;63.40;;;;;;5137564;27;20415;-68
2021/05/09 11:52:19;;;;;;;5.60;3.27;;;21.40;62.10;;;;;;5137532;27;20419;-68
2021/05/09 11:54:46;;;;;;;5.30;2.73;;;21.30;63.10;;;;;;5137708;27;20432;-69
2021/05/09 11:57:12;;;;;;;3.47;2.50;;;21.60;62.80;;;;;;5137993;27;20423;-67
2021/05/09 11:59:43;;;;;;;4.43;3.23;;;21.40;62.60;;;;;;5137609;27;20399;-69
2021/05/09 12:02:12;;;;;;;3.20;2.90;;;21.40;60.90;;;;;;5137433;27;20787;-68
2021/05/09 12:04:38;;;;;;;2.63;2.23;;;21.30;64.30;;;;;;5119250;27;20443;-68
2021/05/09 12:07:07;;;;;;;4.10;2.60;;;21.40;64.40;;;;;;5137820;27;20928;-68
2021/05/09 12:09:34;;;;;;;5.47;2.40;;;21.70;64.80;;;;;;5137195;27;20419;-68
2021/05/09 12:12:00;;;;;;;3.30;1.60;;;21.70;61.10;;;;;;5137636;27;20939;-68
2021/05/09 12:14:28;;;;;;;2.07;1.87;;;22.10;61.10;;;;;;5137280;27;20928;-67
2021/05/09 12:16:55;;;;;;;1.67;1.57;;;22.30;60.80;;;;;;5137508;27;20423;-68
2021/05/09 12:19:32;;;;;;;4.97;1.70;;;22.60;60.00;;;;;;5118143;27;20793;-69
2021/05/09 12:22:02;;;;;;;2.60;1.80;;;22.60;59.70;;;;;;5137486;27;20407;-69
2021/05/09 12:24:28;;;;;;;2.50;1.77;;;22.50;58.70;;;;;;5137074;27;20456;-68
2021/05/09 12:27:06;;;;;;;2.40;1.50;;;22.40;59.40;;;;;;5137387;27;20407;-70
2021/05/09 12:30:02;;;;;;;1.70;1.60;;;22.80;56.90;;;;;;5136841;27;20636;-68
2021/05/09 12:32:31;;;;;;;1.73;1.63;;;22.60;56.30;;;;;;5115501;27;20578;-68
2021/05/09 12:35:11;;;;;;;1.90;1.70;;;22.30;58.20;;;;;;5136847;27;20415;-67
2021/05/09 12:37:49;;;;;;;2.43;1.70;;;22.30;58.20;;;;;;5136775;27;20509;-68
2021/05/09 12:40:30;;;;;;;3.70;1.63;;;22.10;57.20;;;;;;5136640;27;20455;-70
2021/05/09 12:43:00;;;;;;;1.87;1.40;;;22.60;59.10;;;;;;5136526;27;20426;-70
2021/05/09 12:45:37;;;;;;;1.60;1.50;;;22.60;57.00;;;;;;5136985;27;20533;-68